createdAt,value
2023-05-19T04:39:52.347Z,10.80
2023-05-19T04:42:33.182Z,11.10
2023-05-19T04:45:00.753Z,11.30
2023-05-19T04:47:30.219Z,11.10
2023-05-19T04:49:57.716Z,11.50
2023-05-19T04:52:24.886Z,10.60
2023-05-19T04:54:51.968Z,10.20
2023-05-19T04:57:19.045Z,11.00
2023-05-19T04:59:46.461Z,11.40
2023-05-19T05:02:13.746Z,10.90
2023-05-19T05:04:43.706Z,10.50
2023-05-19T05:07:10.909Z,10.30
2023-05-19T05:09:37.997Z,10.50
2023-05-19T05:12:07.818Z,10.20
2023-05-19T05:14:35.620Z,10.40
2023-05-19T05:17:03.627Z,10.10
2023-05-19T05:19:32.460Z,9.70
2023-05-19T05:22:00.540Z,9.90
2023-05-19T05:24:29.112Z,9.30
2023-05-19T05:26:59.326Z,11.00
2023-05-19T05:29:32.613Z,10.50
2023-05-19T05:32:12.727Z,9.50
2023-05-19T05:35:23.835Z,8.80
2023-05-19T05:38:59.445Z,9.40
2023-05-19T05:46:15.209Z,10.20
2023-05-19T05:49:56.974Z,9.20
2023-05-19T05:53:20.658Z,8.60
2023-05-19T05:56:24.667Z,9.90
2023-05-19T05:58:53.925Z,10.90
2023-05-19T06:01:22.132Z,9.40
2023-05-19T06:03:52.373Z,9.00
2023-05-19T06:06:23.858Z,9.60
2023-05-19T06:08:51.899Z,8.70
2023-05-19T06:11:19.790Z,9.70
2023-05-19T06:13:48.429Z,8.90
2023-05-19T06:16:23.196Z,8.20
2023-05-19T06:19:06.473Z,8.30
2023-05-19T06:21:34.855Z,8.80
2023-05-19T06:24:06.633Z,8.90
2023-05-19T06:26:36.505Z,8.50
2023-05-19T06:29:05.109Z,9.10
2023-05-19T06:31:33.958Z,8.20
2023-05-19T06:34:16.449Z,8.00
2023-05-19T06:36:47.197Z,8.40
2023-05-19T06:39:17.976Z,8.40
2023-05-19T06:41:50.436Z,7.10
2023-05-19T06:44:37.508Z,6.30
2023-05-19T06:47:12.007Z,6.30
2023-05-19T06:49:39.609Z,6.60
2023-05-19T06:52:06.846Z,6.30
2023-05-19T06:54:33.854Z,7.00
2023-05-19T06:57:01.455Z,6.10
2023-05-19T06:59:28.676Z,8.00
2023-05-19T07:01:57.079Z,7.10
2023-05-19T07:04:26.384Z,6.40
2023-05-19T07:06:57.618Z,7.20
2023-05-19T07:09:45.866Z,6.50
2023-05-19T07:12:50.752Z,6.10
2023-05-19T07:15:30.285Z,6.00
2023-05-19T07:17:58.801Z,6.50
2023-05-19T07:20:26.143Z,5.80
2023-05-19T07:22:57.071Z,6.30
2023-05-19T07:25:26.303Z,5.30
2023-05-19T07:27:53.681Z,3.90
2023-05-19T07:30:23.859Z,4.00
2023-05-19T07:32:52.392Z,4.60
2023-05-19T07:35:20.368Z,4.10
2023-05-19T07:37:50.217Z,3.30
2023-05-19T07:40:18.415Z,4.20
2023-05-19T07:42:45.512Z,4.30
2023-05-19T07:45:12.777Z,4.20
2023-05-19T07:47:39.914Z,3.20
2023-05-19T07:50:09.678Z,2.70
2023-05-19T07:52:36.787Z,2.60
2023-05-19T07:55:03.967Z,3.20
2023-05-19T07:57:32.757Z,3.20
2023-05-19T08:00:00.088Z,3.10
2023-05-19T08:02:27.437Z,3.10
2023-05-19T08:04:56.909Z,3.40
2023-05-19T08:07:29.265Z,3.10
2023-05-19T08:09:57.896Z,3.50
2023-05-19T08:12:24.992Z,3.50
2023-05-19T08:14:52.519Z,3.00
2023-05-19T08:17:19.499Z,3.40
2023-05-19T08:19:53.517Z,3.60
2023-05-19T08:22:20.885Z,3.60
2023-05-19T08:24:49.830Z,4.00
2023-05-19T08:27:23.173Z,4.00
2023-05-19T08:29:57.709Z,3.50
2023-05-19T08:32:24.814Z,3.70
2023-05-19T08:34:51.861Z,3.40
2023-05-19T08:37:19.578Z,3.00
2023-05-19T08:40:00.192Z,3.50
2023-05-19T08:42:31.763Z,4.40
2023-05-19T08:47:28.748Z,3.60
2023-05-19T08:50:00.918Z,3.40
2023-05-19T08:52:55.422Z,3.50
2023-05-19T08:56:12.186Z,3.00
2023-05-19T08:58:44.506Z,3.10
2023-05-19T09:01:14.230Z,3.10
2023-05-19T09:03:50.621Z,3.30
2023-05-19T09:06:29.370Z,3.40
2023-05-19T09:09:55.472Z,3.40
2023-05-19T09:13:05.477Z,3.50
2023-05-19T09:15:32.906Z,8.20
2023-05-19T09:18:10.598Z,4.10
2023-05-19T09:20:41.846Z,4.10
2023-05-19T09:23:14.094Z,3.40
2023-05-19T09:28:25.528Z,4.00
2023-05-19T09:31:01.453Z,3.80
2023-05-19T09:33:33.384Z,3.50
2023-05-19T09:36:01.950Z,3.30
2023-05-19T09:38:29.745Z,3.40
2023-05-19T09:40:57.563Z,3.50
2023-05-19T09:43:24.658Z,4.20
2023-05-19T09:46:04.334Z,4.00
2023-05-19T09:48:31.454Z,3.30
2023-05-19T09:50:59.033Z,3.60
2023-05-19T09:53:26.390Z,3.60
2023-05-19T09:55:57.771Z,3.80
2023-05-19T09:58:25.205Z,3.20
2023-05-19T10:00:54.657Z,3.30
2023-05-19T10:03:25.069Z,3.00
2023-05-19T10:05:56.058Z,3.50
2023-05-19T10:08:26.678Z,3.70
2023-05-19T10:10:53.771Z,3.40
2023-05-19T10:13:20.983Z,3.40
2023-05-19T10:15:58.032Z,3.10
2023-05-19T10:18:26.866Z,3.50
2023-05-19T10:20:54.006Z,3.20
2023-05-19T10:23:23.451Z,4.00
2023-05-19T10:25:52.195Z,3.50
2023-05-19T10:28:21.347Z,3.60
2023-05-19T10:30:49.831Z,3.60
2023-05-19T10:33:18.150Z,4.20
2023-05-19T10:36:21.604Z,4.50
2023-05-19T10:38:56.888Z,3.60
2023-05-19T10:41:27.848Z,3.70
2023-05-19T10:44:01.115Z,3.30
2023-05-19T10:46:30.952Z,3.80
2023-05-19T10:48:58.067Z,3.30
2023-05-19T10:51:32.006Z,3.30
2023-05-19T10:54:03.430Z,3.30
2023-05-19T10:56:34.057Z,3.80
2023-05-19T10:59:01.499Z,2.80
2023-05-19T11:01:35.793Z,3.50
2023-05-19T11:04:07.535Z,3.10
2023-05-19T11:06:38.191Z,4.10
2023-05-19T11:09:15.787Z,3.30
2023-05-19T11:11:54.018Z,3.30
2023-05-19T11:14:23.197Z,3.10
2023-05-19T11:16:51.743Z,2.60
2023-05-19T11:19:20.183Z,2.80
2023-05-19T11:21:52.412Z,3.40
2023-05-19T11:24:40.226Z,3.00
2023-05-19T11:27:28.894Z,3.40
2023-05-19T11:29:56.500Z,2.90
2023-05-19T11:32:27.919Z,3.20
2023-05-19T11:34:55.829Z,3.80
2023-05-19T11:37:22.844Z,2.60
2023-05-19T11:39:49.807Z,3.20
2023-05-19T11:42:16.790Z,2.70
2023-05-19T11:44:46.377Z,3.10
2023-05-19T11:47:16.968Z,2.80
2023-05-19T11:49:54.965Z,3.00
2023-05-19T11:52:23.183Z,2.30
2023-05-19T11:54:50.321Z,2.80
2023-05-19T11:57:17.370Z,3.00
2023-05-19T11:59:46.156Z,2.60
2023-05-19T12:02:14.044Z,2.80
2023-05-19T12:04:41.382Z,2.40
2023-05-19T12:07:08.497Z,2.50
2023-05-19T12:09:35.828Z,2.90
2023-05-19T12:12:03.052Z,3.10
